^^

Metar (rayon 200 km actualisée toutes les 30 minutes)






LFBU - Brie/Champniers, France
Distance de la station: SSE 07km
Mise à jour: 30/08/2014 19:00
Pas à jour
partiellement nuageux
partiellement nuageux
 Wind from NNO
Vent: NNO 15 km/h
Température: 23°C
Point de Rosée: 13°C
Humidité: 53%
Baromètre: 1020 hPa
Nuages: partiellement nuageux
Visibilité: 10 km
2014/08/30 17:00 LFBU 301700Z AUTO 33008KT 300V020 9999 NSC 23/13 Q1020
LFBG - Cognac/Chateaubernard, France
Distance de la station: OSO 35km
Mise à jour: 30/08/2014 20:00
Quelques Nuages
Quelques Nuages
 Wind from NNO
Vent: NNO 19 km/h
Température: 21°C
Point de Rosée: 14°C
Humidité: 64%
Baromètre: 1020 hPa
Nuages: Quelques Nuages
Visibilité: 10 km
Nuages details: Quelques Nuages 1006 m
2014/08/30 18:00 LFBG 301800Z AUTO 33010KT 9999 FEW033 21/14 Q1020
 
LFBL - Limoges/Bellegarde, France
Distance de la station: E 82km
Mise à jour: 30/08/2014 20:00
partiellement nuageux
partiellement nuageux
 Wind from NNO
Vent: NNO 9 km/h
Température: 19°C
Point de Rosée: 13°C
Humidité: 68%
Baromètre: 1020 hPa
Nuages: partiellement nuageux
Visibilité: 10 km
2014/08/30 18:00 LFBL 301800Z AUTO 33005KT 310V010 9999 NSC 19/13 Q1020
LFBI - Poitiers/France
Distance de la station: N 93km
Mise à jour: 30/08/2014 20:00
Couvert
Couvert
 Wind from NO
Vent: NO 13 km/h
Température: 20°C
Point de Rosée: 13°C
Humidité: 64%
Baromètre: 1020 hPa
Nuages: Couvert
Visibilité: 10 km
Nuages details: Couvert 975 m
2014/08/30 18:00 LFBI 301800Z AUTO 32007KT 9999 OVC032 20/13 Q1020
 
LFBH - La Rochelle/France
Distance de la station: ONO 106km
Mise à jour: 30/08/2014 20:00
Couvert
Couvert
 Wind from NO
Vent: NO 20 km/h
Température: 19°C
Point de Rosée: 14°C
Humidité: 73%
Baromètre: 1021 hPa
Nuages: Couvert
Visibilité: 10 km
Nuages details: Couvert 945 m
2014/08/30 18:00 LFBH 301800Z AUTO 31011KT 9999 OVC031 19/14 Q1021
LFBE - Bergerac/France
Distance de la station: SSE 107km
Mise à jour: 30/08/2014 20:00
partiellement nuageux
partiellement nuageux
 Wind from NO
Vent: NO 9 km/h
Température: 22°C
Point de Rosée: 13°C
Humidité: 57%
Baromètre: 1019 hPa
Nuages: partiellement nuageux
Visibilité: 10 km
2014/08/30 18:00 LFBE 301800Z AUTO 32005KT 9999 NSC 22/13 Q1019
 
LFBD - Bordeaux/France
Distance de la station: SSO 121km
Mise à jour: 30/08/2014 20:00
partiellement nuageux
partiellement nuageux
 Wind from N
Vent: N 15 km/h
Température: 22°C
Point de Rosée: 14°C
Humidité: 61%
Baromètre: 1020 hPa
Nuages: partiellement nuageux
Visibilité: 10 km
2014/08/30 18:00 LFBD 301800Z AUTO 36008KT 9999 NSC 22/14 Q1020
LFRI - La Roche-sur-Yon/France
Distance de la station: NO 156km
Mise à jour: 30/08/2014 20:00
Quelques Nuages
Quelques Nuages
 Wind from ONO
Vent: ONO 9 km/h
Température: 18°C
Point de Rosée: 14°C
Humidité: 78%
Baromètre: 1021 hPa
Nuages: Quelques Nuages
Visibilité: 10 km
Nuages details: Quelques Nuages 914 m
2014/08/30 18:00 LFRI 301800Z AUTO 29005KT 9999 FEW030 18/14 Q1021
 
LFBC - Cazaux/France
Distance de la station: SO 167km
Mise à jour: 30/08/2014 20:00
partiellement nuageux
partiellement nuageux
 Wind from NO
Vent: NO 15 km/h
Température: 21°C
Point de Rosée: 15°C
Humidité: 69%
Baromètre: 1020 hPa
Nuages: partiellement nuageux
Visibilité: 10 km
2014/08/30 18:00 LFBC 301800Z AUTO 32008KT 9999 NSC 21/15 Q1020
LFLX - Chateauroux/France
Distance de la station: NE 174km
Mise à jour: 30/08/2014 20:00
Couvert
Couvert
 Wind from NNO
Vent: NNO 13 km/h
Température: 20°C
Point de Rosée: 13°C
Humidité: 64%
Baromètre: 1020 hPa
Nuages: Couvert
Visibilité: 10 km
Nuages details: Couvert 1189 m
2014/08/30 18:00 LFLX 301800Z AUTO 33007KT 9999 OVC039 20/13 Q1020
 
LFBA - Agen/France
Distance de la station: SSE 179km
Mise à jour: 30/08/2014 20:00
partiellement nuageux
partiellement nuageux
 Wind from NO
Vent: NO 9 km/h
Température: 23°C
Point de Rosée: 14°C
Humidité: 57%
Baromètre: 1019 hPa
Nuages: partiellement nuageux
Visibilité: 10 km
2014/08/30 18:00 LFBA 301800Z AUTO 31005KT 280V340 9999 NSC 23/14 Q1019